Watkins, Colorado
Current Conditions -  °F | °C
As of 8:53 PM on Sunday 25 Jan 2015 (Local Time) from KDEN Reporting Station
Clear Clear  
Wind Chill: 41°   Ceiling: Unl
Heat Index: 44°   Visibility: 10mi
Dew Point: 25°   Wind: 6mph
Humidity: 47%   Direction: 250°WSW
Pressure: 30.19"   Gusts: NA
Location:  39.75°N, 104.61°W
Report Text: KDEN 260353Z 25005KT 10SM CLR 07/M04 A3019 RMK AO2 SLP209 T00671039
Loading
Personal Weather Stations






























Interactive Weather Map New forecast layout! Learn more

10-Day Weather Forecast

Advertisements
Track Severe Weather on mobile